sensor_id;sensor_type;location;lat;lon;timestamp;pressure;altitude;pressure_sealevel;temperature;humidity
30421;BME280;17218;54.070;10.012;2023-04-10T00:01:48;102415.66;;;4.33;100.00
30421;BME280;17218;54.070;10.012;2023-04-10T00:04:14;102406.94;;;4.29;100.00
30421;BME280;17218;54.070;10.012;2023-04-10T00:06:41;102409.25;;;4.23;100.00
30421;BME280;17218;54.070;10.012;2023-04-10T00:09:09;102405.78;;;4.23;100.00
30421;BME280;17218;54.070;10.012;2023-04-10T00:11:36;102412.06;;;4.29;100.00
30421;BME280;17218;54.070;10.012;2023-04-10T00:14:02;102407.97;;;4.33;100.00
30421;BME280;17218;54.070;10.012;2023-04-10T00:16:29;102412.22;;;4.33;100.00
30421;BME280;17218;54.070;10.012;2023-04-10T00:18:55;102400.13;;;4.30;100.00
30421;BME280;17218;54.070;10.012;2023-04-10T00:21:22;102395.41;;;4.20;100.00
30421;BME280;17218;54.070;10.012;2023-04-10T00:23:48;102404.63;;;4.16;100.00
30421;BME280;17218;54.070;10.012;2023-04-10T00:26:16;102402.22;;;4.19;100.00
30421;BME280;17218;54.070;10.012;2023-04-10T00:28:42;102405.78;;;4.23;100.00
30421;BME280;17218;54.070;10.012;2023-04-10T00:31:09;102409.38;;;4.26;100.00
30421;BME280;17218;54.070;10.012;2023-04-10T00:33:35;102398.69;;;4.17;100.00
30421;BME280;17218;54.070;10.012;2023-04-10T00:36:02;102403.00;;;4.18;100.00
30421;BME280;17218;54.070;10.012;2023-04-10T00:38:29;102404.13;;;4.23;100.00
30421;BME280;17218;54.070;10.012;2023-04-10T00:40:55;102406.09;;;4.29;100.00
30421;BME280;17218;54.070;10.012;2023-04-10T00:43:23;102402.16;;;4.37;100.00
30421;BME280;17218;54.070;10.012;2023-04-10T00:45:50;102405.03;;;4.44;100.00
30421;BME280;17218;54.070;10.012;2023-04-10T00:48:16;102402.28;;;4.40;100.00
30421;BME280;17218;54.070;10.012;2023-04-10T00:50:44;102388.06;;;4.47;100.00
30421;BME280;17218;54.070;10.012;2023-04-10T00:53:11;102393.28;;;4.49;100.00
30421;BME280;17218;54.070;10.012;2023-04-10T00:55:38;102390.09;;;4.55;100.00
30421;BME280;17218;54.070;10.012;2023-04-10T00:58:04;102387.66;;;4.58;100.00
30421;BME280;17218;54.070;10.012;2023-04-10T01:00:32;102384.22;;;4.57;100.00
30421;BME280;17218;54.070;10.012;2023-04-10T01:02:59;102385.38;;;4.64;100.00
30421;BME280;17218;54.070;10.012;2023-04-10T01:05:28;102387.47;;;4.73;100.00
30421;BME280;17218;54.070;10.012;2023-04-10T01:08:06;102377.59;;;4.82;100.00
30421;BME280;17218;54.070;10.012;2023-04-10T01:10:39;102373.97;;;4.77;100.00
30421;BME280;17218;54.070;10.012;2023-04-10T01:13:14;102369.72;;;4.79;100.00
30421;BME280;17218;54.070;10.012;2023-04-10T01:16:01;102362.78;;;4.76;100.00
30421;BME280;17218;54.070;10.012;2023-04-10T01:18:36;102360.47;;;4.83;100.00
30421;BME280;17218;54.070;10.012;2023-04-10T01:21:09;102358.84;;;4.85;100.00
30421;BME280;17218;54.070;10.012;2023-04-10T01:23:51;102342.88;;;4.92;100.00
30421;BME280;17218;54.070;10.012;2023-04-10T01:26:31;102344.59;;;4.92;100.00
30421;BME280;17218;54.070;10.012;2023-04-10T01:29:05;102336.13;;;4.94;100.00
30421;BME280;17218;54.070;10.012;2023-04-10T01:31:36;102337.25;;;4.80;100.00
30421;BME280;17218;54.070;10.012;2023-04-10T01:34:07;102336.59;;;4.64;100.00
30421;BME280;17218;54.070;10.012;2023-04-10T01:36:36;102339.72;;;4.57;100.00
30421;BME280;17218;54.070;10.012;2023-04-10T01:39:04;102351.59;;;4.55;100.00
30421;BME280;17218;54.070;10.012;2023-04-10T01:41:32;102346.78;;;4.43;100.00
30421;BME280;17218;54.070;10.012;2023-04-10T01:44:03;102347.97;;;4.49;100.00
30421;BME280;17218;54.070;10.012;2023-04-10T01:46:31;102337.81;;;4.52;100.00
30421;BME280;17218;54.070;10.012;2023-04-10T01:49:00;102330.91;;;4.51;100.00
30421;BME280;17218;54.070;10.012;2023-04-10T01:51:29;102342.19;;;4.55;100.00
30421;BME280;17218;54.070;10.012;2023-04-10T01:53:57;102339.63;;;4.55;100.00
30421;BME280;17218;54.070;10.012;2023-04-10T01:56:24;102330.59;;;4.63;100.00
30421;BME280;17218;54.070;10.012;2023-04-10T01:58:51;102322.00;;;4.63;100.00
30421;BME280;17218;54.070;10.012;2023-04-10T02:01:20;102325.31;;;4.60;100.00
30421;BME280;17218;54.070;10.012;2023-04-10T02:03:46;102331.19;;;4.58;100.00
30421;BME280;17218;54.070;10.012;2023-04-10T02:06:17;102316.91;;;4.64;100.00
30421;BME280;17218;54.070;10.012;2023-04-10T02:08:49;102311.66;;;4.61;100.00
30421;BME280;17218;54.070;10.012;2023-04-10T02:11:24;102321.94;;;4.61;100.00
30421;BME280;17218;54.070;10.012;2023-04-10T02:13:56;102298.88;;;4.63;100.00
30421;BME280;17218;54.070;10.012;2023-04-10T02:16:28;102296.53;;;4.68;100.00
30421;BME280;17218;54.070;10.012;2023-04-10T02:18:56;102289.50;;;4.63;100.00
30421;BME280;17218;54.070;10.012;2023-04-10T02:21:23;102289.84;;;4.71;100.00
30421;BME280;17218;54.070;10.012;2023-04-10T02:23:51;102291.53;;;4.71;100.00
30421;BME280;17218;54.070;10.012;2023-04-10T02:26:17;102296.38;;;4.64;100.00
30421;BME280;17218;54.070;10.012;2023-04-10T02:28:44;102284.38;;;4.63;100.00
30421;BME280;17218;54.070;10.012;2023-04-10T02:31:11;102279.47;;;4.48;100.00
30421;BME280;17218;54.070;10.012;2023-04-10T02:33:38;102293.19;;;4.49;100.00
30421;BME280;17218;54.070;10.012;2023-04-10T02:36:06;102285.59;;;4.52;100.00
30421;BME280;17218;54.070;10.012;2023-04-10T02:38:32;102286.22;;;4.46;100.00
30421;BME280;17218;54.070;10.012;2023-04-10T02:40:59;102280.19;;;4.46;100.00
30421;BME280;17218;54.070;10.012;2023-04-10T02:43:25;102284.06;;;4.36;100.00
30421;BME280;17218;54.070;10.012;2023-04-10T02:45:52;102274.75;;;4.38;100.00
30421;BME280;17218;54.070;10.012;2023-04-10T02:48:19;102282.03;;;4.28;100.00
30421;BME280;17218;54.070;10.012;2023-04-10T02:50:47;102274.28;;;4.27;100.00
30421;BME280;17218;54.070;10.012;2023-04-10T02:53:14;102278.53;;;4.26;100.00
30421;BME280;17218;54.070;10.012;2023-04-10T02:55:41;102287.59;;;4.38;100.00
30421;BME280;17218;54.070;10.012;2023-04-10T02:58:08;102277.44;;;4.41;100.00
30421;BME280;17218;54.070;10.012;2023-04-10T03:00:34;102284.88;;;4.35;100.00
30421;BME280;17218;54.070;10.012;2023-04-10T03:03:01;102264.97;;;4.29;100.00
30421;BME280;17218;54.070;10.012;2023-04-10T03:05:28;102268.41;;;4.29;100.00
30421;BME280;17218;54.070;10.012;2023-04-10T03:07:56;102264.63;;;4.41;100.00
30421;BME280;17218;54.070;10.012;2023-04-10T03:10:22;102273.38;;;4.46;100.00
30421;BME280;17218;54.070;10.012;2023-04-10T03:12:48;102260.59;;;4.48;100.00
30421;BME280;17218;54.070;10.012;2023-04-10T03:15:15;102253.63;;;4.44;100.00
30421;BME280;17218;54.070;10.012;2023-04-10T03:17:42;102255.16;;;4.40;100.00
30421;BME280;17218;54.070;10.012;2023-04-10T03:20:09;102249.75;;;4.34;100.00
30421;BME280;17218;54.070;10.012;2023-04-10T03:22:36;102258.75;;;4.44;100.00
30421;BME280;17218;54.070;10.012;2023-04-10T03:25:06;102253.28;;;4.36;100.00
30421;BME280;17218;54.070;10.012;2023-04-10T03:27:32;102247.53;;;4.41;100.00
30421;BME280;17218;54.070;10.012;2023-04-10T03:29:59;102250.78;;;4.37;100.00
30421;BME280;17218;54.070;10.012;2023-04-10T03:32:26;102245.97;;;4.45;100.00
30421;BME280;17218;54.070;10.012;2023-04-10T03:34:56;102247.22;;;4.55;100.00
30421;BME280;17218;54.070;10.012;2023-04-10T03:37:22;102243.91;;;4.58;100.00
30421;BME280;17218;54.070;10.012;2023-04-10T03:39:49;102244.75;;;4.57;100.00
30421;BME280;17218;54.070;10.012;2023-04-10T03:42:17;102233.25;;;4.48;100.00
30421;BME280;17218;54.070;10.012;2023-04-10T03:44:43;102238.06;;;4.40;100.00
30421;BME280;17218;54.070;10.012;2023-04-10T03:47:10;102237.06;;;4.37;100.00
30421;BME280;17218;54.070;10.012;2023-04-10T03:49:36;102240.50;;;4.37;100.00
30421;BME280;17218;54.070;10.012;2023-04-10T03:52:03;102245.53;;;4.56;100.00
30421;BME280;17218;54.070;10.012;2023-04-10T03:54:30;102246.50;;;4.58;100.00
30421;BME280;17218;54.070;10.012;2023-04-10T03:56:56;102245.66;;;4.59;100.00
30421;BME280;17218;54.070;10.012;2023-04-10T03:59:24;102235.50;;;4.60;100.00
30421;BME280;17218;54.070;10.012;2023-04-10T04:01:50;102227.53;;;4.54;100.00
30421;BME280;17218;54.070;10.012;2023-04-10T04:04:17;102232.53;;;4.51;100.00
30421;BME280;17218;54.070;10.012;2023-04-10T04:06:44;102232.03;;;4.60;100.00
30421;BME280;17218;54.070;10.012;2023-04-10T04:09:10;102230.09;;;4.54;100.00
30421;BME280;17218;54.070;10.012;2023-04-10T04:11:37;102231.22;;;4.61;100.00
30421;BME280;17218;54.070;10.012;2023-04-10T04:14:03;102211.72;;;4.66;100.00
30421;BME280;17218;54.070;10.012;2023-04-10T04:16:31;102227.03;;;4.63;100.00
30421;BME280;17218;54.070;10.012;2023-04-10T04:18:58;102212.50;;;4.63;100.00
30421;BME280;17218;54.070;10.012;2023-04-10T04:21:25;102215.63;;;4.56;100.00
30421;BME280;17218;54.070;10.012;2023-04-10T04:23:51;102217.75;;;4.45;100.00
30421;BME280;17218;54.070;10.012;2023-04-10T04:26:19;102211.41;;;4.37;100.00
30421;BME280;17218;54.070;10.012;2023-04-10T04:28:46;102211.88;;;4.28;100.00
30421;BME280;17218;54.070;10.012;2023-04-10T04:31:12;102208.31;;;4.24;100.00
30421;BME280;17218;54.070;10.012;2023-04-10T04:33:40;102216.34;;;4.32;100.00
30421;BME280;17218;54.070;10.012;2023-04-10T04:36:07;102215.19;;;4.25;100.00
30421;BME280;17218;54.070;10.012;2023-04-10T04:38:33;102220.97;;;4.20;100.00
30421;BME280;17218;54.070;10.012;2023-04-10T04:41:00;102225.63;;;4.09;100.00
30421;BME280;17218;54.070;10.012;2023-04-10T04:43:26;102235.94;;;4.10;100.00
30421;BME280;17218;54.070;10.012;2023-04-10T04:45:53;102233.31;;;4.09;100.00
30421;BME280;17218;54.070;10.012;2023-04-10T04:48:19;102235.94;;;4.10;100.00
30421;BME280;17218;54.070;10.012;2023-04-10T04:50:47;102238.09;;;4.21;100.00
30421;BME280;17218;54.070;10.012;2023-04-10T04:53:14;102238.63;;;4.13;100.00
30421;BME280;17218;54.070;10.012;2023-04-10T04:55:40;102235.25;;;4.14;100.00
30421;BME280;17218;54.070;10.012;2023-04-10T04:58:07;102236.47;;;4.23;100.00
30421;BME280;17218;54.070;10.012;2023-04-10T05:00:33;102229.31;;;4.35;100.00
30421;BME280;17218;54.070;10.012;2023-04-10T05:03:00;102226.56;;;4.31;100.00
30421;BME280;17218;54.070;10.012;2023-04-10T05:05:26;102226.50;;;4.29;100.00
30421;BME280;17218;54.070;10.012;2023-04-10T05:07:54;102226.06;;;4.39;100.00
30421;BME280;17218;54.070;10.012;2023-04-10T05:10:20;102224.91;;;4.52;100.00
30421;BME280;17218;54.070;10.012;2023-04-10T05:12:47;102219.88;;;4.56;100.00
30421;BME280;17218;54.070;10.012;2023-04-10T05:15:13;102215.50;;;4.74;100.00
30421;BME280;17218;54.070;10.012;2023-04-10T05:17:40;102212.94;;;4.74;100.00
30421;BME280;17218;54.070;10.012;2023-04-10T05:20:07;102206.34;;;4.81;100.00
30421;BME280;17218;54.070;10.012;2023-04-10T05:22:34;102203.41;;;4.93;100.00
30421;BME280;17218;54.070;10.012;2023-04-10T05:25:02;102205.34;;;4.99;100.00
30421;BME280;17218;54.070;10.012;2023-04-10T05:27:29;102195.13;;;5.00;100.00
30421;BME280;17218;54.070;10.012;2023-04-10T05:29:56;102190.47;;;5.13;100.00
30421;BME280;17218;54.070;10.012;2023-04-10T05:32:22;102193.16;;;5.16;100.00
30421;BME280;17218;54.070;10.012;2023-04-10T05:34:49;102177.69;;;5.37;100.00
30421;BME280;17218;54.070;10.012;2023-04-10T05:37:15;102177.69;;;5.37;100.00
30421;BME280;17218;54.070;10.012;2023-04-10T05:39:42;102183.94;;;5.44;100.00
30421;BME280;17218;54.070;10.012;2023-04-10T05:42:09;102179.03;;;5.51;100.00
30421;BME280;17218;54.070;10.012;2023-04-10T05:44:36;102174.69;;;5.49;100.00
30421;BME280;17218;54.070;10.012;2023-04-10T05:47:02;102168.25;;;5.61;100.00
30421;BME280;17218;54.070;10.012;2023-04-10T05:49:29;102169.06;;;5.84;100.00
30421;BME280;17218;54.070;10.012;2023-04-10T05:51:55;102162.75;;;5.99;100.00
30421;BME280;17218;54.070;10.012;2023-04-10T05:54:22;102158.84;;;6.11;100.00
30421;BME280;17218;54.070;10.012;2023-04-10T05:56:48;102141.09;;;6.18;100.00
30421;BME280;17218;54.070;10.012;2023-04-10T05:59:16;102142.09;;;6.22;100.00
30421;BME280;17218;54.070;10.012;2023-04-10T06:01:43;102130.09;;;6.23;100.00
30421;BME280;17218;54.070;10.012;2023-04-10T06:04:10;102126.84;;;6.28;100.00
30421;BME280;17218;54.070;10.012;2023-04-10T06:06:37;102123.13;;;6.46;100.00
30421;BME280;17218;54.070;10.012;2023-04-10T06:09:04;102123.34;;;6.52;100.00
30421;BME280;17218;54.070;10.012;2023-04-10T06:11:30;102115.09;;;6.64;100.00
30421;BME280;17218;54.070;10.012;2023-04-10T06:13:57;102105.69;;;6.37;100.00
30421;BME280;17218;54.070;10.012;2023-04-10T06:16:25;102111.09;;;6.45;100.00
30421;BME280;17218;54.070;10.012;2023-04-10T06:18:51;102105.69;;;6.37;100.00
30421;BME280;17218;54.070;10.012;2023-04-10T06:21:18;102109.72;;;6.56;100.00
30421;BME280;17218;54.070;10.012;2023-04-10T06:23:44;102100.28;;;6.57;100.00
30421;BME280;17218;54.070;10.012;2023-04-10T06:26:11;102102.28;;;6.66;100.00
30421;BME280;17218;54.070;10.012;2023-04-10T06:28:38;102084.31;;;6.67;100.00
30421;BME280;17218;54.070;10.012;2023-04-10T06:31:05;102090.75;;;6.82;100.00
30421;BME280;17218;54.070;10.012;2023-04-10T06:33:33;102090.44;;;6.71;100.00
30421;BME280;17218;54.070;10.012;2023-04-10T06:36:00;102065.84;;;6.83;100.00
30421;BME280;17218;54.070;10.012;2023-04-10T06:38:28;102080.50;;;6.84;100.00
30421;BME280;17218;54.070;10.012;2023-04-10T06:40:54;102063.50;;;6.90;100.00
30421;BME280;17218;54.070;10.012;2023-04-10T06:43:21;102069.06;;;7.04;100.00
30421;BME280;17218;54.070;10.012;2023-04-10T06:45:47;102059.78;;;7.10;100.00
30421;BME280;17218;54.070;10.012;2023-04-10T06:48:14;102056.59;;;7.19;100.00
30421;BME280;17218;54.070;10.012;2023-04-10T06:50:41;102058.72;;;7.34;100.00
30421;BME280;17218;54.070;10.012;2023-04-10T06:53:08;102052.66;;;7.32;100.00
30421;BME280;17218;54.070;10.012;2023-04-10T06:55:34;102049.38;;;7.37;100.00
30421;BME280;17218;54.070;10.012;2023-04-10T06:58:01;102050.53;;;7.49;100.00
30421;BME280;17218;54.070;10.012;2023-04-10T07:00:29;102049.09;;;7.60;100.00
30421;BME280;17218;54.070;10.012;2023-04-10T07:02:55;102045.84;;;7.68;100.00
30421;BME280;17218;54.070;10.012;2023-04-10T07:05:22;102058.06;;;7.75;100.00
30421;BME280;17218;54.070;10.012;2023-04-10T07:07:50;102044.56;;;7.85;100.00
30421;BME280;17218;54.070;10.012;2023-04-10T07:10:17;102046.31;;;7.86;100.00
30421;BME280;17218;54.070;10.012;2023-04-10T07:12:44;102038.75;;;7.94;100.00
30421;BME280;17218;54.070;10.012;2023-04-10T07:15:10;102046.66;;;8.01;100.00
30421;BME280;17218;54.070;10.012;2023-04-10T07:17:37;102044.22;;;8.07;100.00
30421;BME280;17218;54.070;10.012;2023-04-10T07:20:05;102036.69;;;8.16;100.00
30421;BME280;17218;54.070;10.012;2023-04-10T07:22:31;102036.94;;;8.27;100.00
30421;BME280;17218;54.070;10.012;2023-04-10T07:24:59;102037.09;;;8.33;100.00
30421;BME280;17218;54.070;10.012;2023-04-10T07:27:26;102027.72;;;8.37;100.00
30421;BME280;17218;54.070;10.012;2023-04-10T07:29:53;102027.03;;;8.46;100.00
30421;BME280;17218;54.070;10.012;2023-04-10T07:32:20;102029.88;;;8.57;100.00
30421;BME280;17218;54.070;10.012;2023-04-10T07:34:47;102033.41;;;8.61;100.00
30421;BME280;17218;54.070;10.012;2023-04-10T07:37:15;102025.91;;;8.73;100.00
30421;BME280;17218;54.070;10.012;2023-04-10T07:39:42;102018.19;;;8.75;100.00
30421;BME280;17218;54.070;10.012;2023-04-10T07:42:10;102021.81;;;8.81;100.00
30421;BME280;17218;54.070;10.012;2023-04-10T07:44:36;102014.25;;;8.92;100.00
30421;BME280;17218;54.070;10.012;2023-04-10T07:47:03;102015.44;;;9.09;100.00
30421;BME280;17218;54.070;10.012;2023-04-10T07:49:29;102007.84;;;9.16;100.00
30421;BME280;17218;54.070;10.012;2023-04-10T07:51:56;102002.00;;;9.28;100.00
30421;BME280;17218;54.070;10.012;2023-04-10T07:54:22;101996.19;;;9.40;100.00
30421;BME280;17218;54.070;10.012;2023-04-10T07:56:50;102007.63;;;9.53;100.00
30421;BME280;17218;54.070;10.012;2023-04-10T07:59:18;101996.75;;;9.73;100.00
30421;BME280;17218;54.070;10.012;2023-04-10T08:01:45;101997.97;;;9.97;100.00
30421;BME280;17218;54.070;10.012;2023-04-10T08:04:11;101995.69;;;10.18;100.00
30421;BME280;17218;54.070;10.012;2023-04-10T08:06:38;101992.47;;;10.34;100.00
30421;BME280;17218;54.070;10.012;2023-04-10T08:09:04;101997.94;;;10.52;100.00
30421;BME280;17218;54.070;10.012;2023-04-10T08:11:33;101980.09;;;10.78;100.00
30421;BME280;17218;54.070;10.012;2023-04-10T08:14:01;101980.31;;;10.98;100.00
30421;BME280;17218;54.070;10.012;2023-04-10T08:16:32;101981.16;;;10.94;100.00
30421;BME280;17218;54.070;10.012;2023-04-10T08:19:00;101976.03;;;11.02;100.00
30421;BME280;17218;54.070;10.012;2023-04-10T08:21:28;101970.94;;;11.10;100.00
30421;BME280;17218;54.070;10.012;2023-04-10T08:23:57;101965.94;;;11.29;100.00
30421;BME280;17218;54.070;10.012;2023-04-10T08:26:25;101960.84;;;11.38;100.00
30421;BME280;17218;54.070;10.012;2023-04-10T08:28:53;101959.31;;;11.67;100.00
30421;BME280;17218;54.070;10.012;2023-04-10T08:31:21;101962.06;;;11.87;100.00
30421;BME280;17218;54.070;10.012;2023-04-10T08:33:49;101963.00;;;11.94;100.00
30421;BME280;17218;54.070;10.012;2023-04-10T08:36:16;101952.63;;;11.99;100.00
30421;BME280;17218;54.070;10.012;2023-04-10T08:38:43;101952.59;;;11.92;100.00
30421;BME280;17218;54.070;10.012;2023-04-10T08:41:10;101943.88;;;11.83;100.00
30421;BME280;17218;54.070;10.012;2023-04-10T08:43:37;101945.66;;;11.95;100.00
30421;BME280;17218;54.070;10.012;2023-04-10T08:46:04;101947.47;;;12.03;100.00
30421;BME280;17218;54.070;10.012;2023-04-10T08:48:34;101951.88;;;12.14;100.00
30421;BME280;17218;54.070;10.012;2023-04-10T08:51:08;101944.16;;;12.26;100.00
30421;BME280;17218;54.070;10.012;2023-04-10T08:53:40;101932.09;;;12.36;100.00
30421;BME280;17218;54.070;10.012;2023-04-10T08:56:11;101928.69;;;12.55;100.00
30421;BME280;17218;54.070;10.012;2023-04-10T08:58:38;101927.00;;;12.68;100.00
30421;BME280;17218;54.070;10.012;2023-04-10T09:01:05;101927.00;;;12.69;100.00
30421;BME280;17218;54.070;10.012;2023-04-10T09:03:32;101923.56;;;12.83;100.00
30421;BME280;17218;54.070;10.012;2023-04-10T09:06:01;101920.13;;;12.92;100.00
30421;BME280;17218;54.070;10.012;2023-04-10T09:08:29;101917.50;;;12.85;100.00
30421;BME280;17218;54.070;10.012;2023-04-10T09:10:56;101908.00;;;13.03;100.00
30421;BME280;17218;54.070;10.012;2023-04-10T09:13:37;101908.88;;;13.32;100.00
30421;BME280;17218;54.070;10.012;2023-04-10T09:16:05;101895.88;;;13.54;100.00
30421;BME280;17218;54.070;10.012;2023-04-10T09:18:46;101893.28;;;13.62;100.00
30421;BME280;17218;54.070;10.012;2023-04-10T09:21:14;101882.81;;;13.80;100.00
30421;BME280;17218;54.070;10.012;2023-04-10T09:23:43;101887.09;;;14.00;100.00
30421;BME280;17218;54.070;10.012;2023-04-10T09:26:24;101878.41;;;14.06;100.00
30421;BME280;17218;54.070;10.012;2023-04-10T09:28:55;101869.56;;;14.35;100.00
30421;BME280;17218;54.070;10.012;2023-04-10T09:31:33;101863.50;;;14.31;100.00
30421;BME280;17218;54.070;10.012;2023-04-10T09:34:08;101859.19;;;14.32;100.00
30421;BME280;17218;54.070;10.012;2023-04-10T09:36:35;101855.53;;;14.66;100.00
30421;BME280;17218;54.070;10.012;2023-04-10T09:39:04;101844.94;;;14.91;100.00
30421;BME280;17218;54.070;10.012;2023-04-10T09:41:30;101840.53;;;14.99;100.00
30421;BME280;17218;54.070;10.012;2023-04-10T09:44:07;101834.28;;;15.18;100.00
30421;BME280;17218;54.070;10.012;2023-04-10T09:46:34;101833.97;;;15.49;100.00
30421;BME280;17218;54.070;10.012;2023-04-10T09:49:00;101821.75;;;15.53;100.00
30421;BME280;17218;54.070;10.012;2023-04-10T09:51:29;101817.41;;;15.50;100.00
30421;BME280;17218;54.070;10.012;2023-04-10T09:53:56;101813.16;;;15.41;99.13
30421;BME280;17218;54.070;10.012;2023-04-10T09:56:25;101812.28;;;15.42;95.66
30421;BME280;17218;54.070;10.012;2023-04-10T09:58:53;101803.63;;;15.40;96.27
30421;BME280;17218;54.070;10.012;2023-04-10T10:01:21;101808.66;;;15.56;100.00
30421;BME280;17218;54.070;10.012;2023-04-10T10:03:49;101794.78;;;15.50;95.69
30421;BME280;17218;54.070;10.012;2023-04-10T10:06:16;101792.94;;;15.62;95.23
30421;BME280;17218;54.070;10.012;2023-04-10T10:08:43;101802.88;;;15.27;96.36
30421;BME280;17218;54.070;10.012;2023-04-10T10:11:12;101793.41;;;15.18;93.97
30421;BME280;17218;54.070;10.012;2023-04-10T10:13:48;101786.06;;;15.52;99.44
30421;BME280;17218;54.070;10.012;2023-04-10T10:16:19;101769.06;;;15.90;100.00
30421;BME280;17218;54.070;10.012;2023-04-10T10:18:50;101765.63;;;15.88;92.90
30421;BME280;17218;54.070;10.012;2023-04-10T10:21:19;101770.16;;;15.73;90.56
30421;BME280;17218;54.070;10.012;2023-04-10T10:23:47;101759.59;;;15.83;87.58
30421;BME280;17218;54.070;10.012;2023-04-10T10:26:18;101757.84;;;15.82;84.33
30421;BME280;17218;54.070;10.012;2023-04-10T10:28:48;101750.59;;;16.06;86.21
30421;BME280;17218;54.070;10.012;2023-04-10T10:31:17;101741.06;;;16.03;85.71
30421;BME280;17218;54.070;10.012;2023-04-10T10:33:44;101734.34;;;15.82;81.02
30421;BME280;17218;54.070;10.012;2023-04-10T10:36:12;101736.19;;;15.72;79.21
30421;BME280;17218;54.070;10.012;2023-04-10T10:38:47;101730.72;;;15.91;81.59
30421;BME280;17218;54.070;10.012;2023-04-10T10:41:21;101734.19;;;15.93;82.58
30421;BME280;17218;54.070;10.012;2023-04-10T10:43:54;101722.31;;;16.31;85.48
30421;BME280;17218;54.070;10.012;2023-04-10T10:46:34;101724.34;;;16.14;80.02
30421;BME280;17218;54.070;10.012;2023-04-10T10:49:03;101713.66;;;16.31;83.71
30421;BME280;17218;54.070;10.012;2023-04-10T10:51:43;101712.53;;;16.44;77.08
30421;BME280;17218;54.070;10.012;2023-04-10T10:54:30;101691.41;;;16.59;75.81
30421;BME280;17218;54.070;10.012;2023-04-10T10:56:57;101693.66;;;16.79;78.28
30421;BME280;17218;54.070;10.012;2023-04-10T10:59:54;101685.50;;;16.95;75.54
30421;BME280;17218;54.070;10.012;2023-04-10T11:02:22;101672.41;;;16.95;74.76
30421;BME280;17218;54.070;10.012;2023-04-10T11:04:48;101654.97;;;16.95;71.65
30421;BME280;17218;54.070;10.012;2023-04-10T11:07:15;101660.69;;;17.17;72.62
30421;BME280;17218;54.070;10.012;2023-04-10T11:09:46;101644.63;;;17.33;71.18
30421;BME280;17218;54.070;10.012;2023-04-10T11:12:14;101656.34;;;17.58;67.14
30421;BME280;17218;54.070;10.012;2023-04-10T11:14:41;101645.09;;;17.52;66.28
30421;BME280;17218;54.070;10.012;2023-04-10T11:17:10;101634.91;;;17.38;64.55
30421;BME280;17218;54.070;10.012;2023-04-10T11:19:56;101642.69;;;17.43;63.10
30421;BME280;17218;54.070;10.012;2023-04-10T11:22:23;101627.41;;;18.00;61.24
30421;BME280;17218;54.070;10.012;2023-04-10T11:24:54;101624.38;;;18.84;59.53
30421;BME280;17218;54.070;10.012;2023-04-10T11:27:43;101625.91;;;20.10;52.60
30421;BME280;17218;54.070;10.012;2023-04-10T11:30:27;101629.69;;;20.28;49.64
30421;BME280;17218;54.070;10.012;2023-04-10T11:32:55;101612.25;;;21.01;48.00
30421;BME280;17218;54.070;10.012;2023-04-10T11:35:22;101597.94;;;21.53;45.09
30421;BME280;17218;54.070;10.012;2023-04-10T11:37:48;101599.09;;;21.68;43.80
30421;BME280;17218;54.070;10.012;2023-04-10T11:40:15;101585.94;;;20.99;45.13
30421;BME280;17218;54.070;10.012;2023-04-10T11:42:42;101584.03;;;20.79;46.65
30421;BME280;17218;54.070;10.012;2023-04-10T11:45:25;101580.16;;;20.65;48.15
30421;BME280;17218;54.070;10.012;2023-04-10T11:47:52;101568.97;;;21.08;47.32
30421;BME280;17218;54.070;10.012;2023-04-10T11:50:20;101579.06;;;22.28;45.98
30421;BME280;17218;54.070;10.012;2023-04-10T11:52:48;101570.84;;;22.15;46.11
30421;BME280;17218;54.070;10.012;2023-04-10T11:55:15;101561.75;;;22.42;44.82
30421;BME280;17218;54.070;10.012;2023-04-10T11:57:43;101562.38;;;22.68;46.43
30421;BME280;17218;54.070;10.012;2023-04-10T12:00:10;101564.03;;;22.30;44.76
30421;BME280;17218;54.070;10.012;2023-04-10T12:02:49;101547.69;;;21.57;41.45
30421;BME280;17218;54.070;10.012;2023-04-10T12:05:17;101551.94;;;21.83;42.32
30421;BME280;17218;54.070;10.012;2023-04-10T12:07:44;101537.16;;;20.89;42.53
30421;BME280;17218;54.070;10.012;2023-04-10T12:10:11;101534.91;;;21.26;42.31
30421;BME280;17218;54.070;10.012;2023-04-10T12:12:37;101534.72;;;19.83;43.99
30421;BME280;17218;54.070;10.012;2023-04-10T12:15:26;101536.59;;;19.79;44.57
30421;BME280;17218;54.070;10.012;2023-04-10T12:17:54;101526.03;;;19.27;44.79
30421;BME280;17218;54.070;10.012;2023-04-10T12:20:21;101548.09;;;18.91;46.04
30421;BME280;17218;54.070;10.012;2023-04-10T12:22:54;101530.72;;;19.17;45.99
30421;BME280;17218;54.070;10.012;2023-04-10T12:25:25;101516.94;;;19.37;45.63
30421;BME280;17218;54.070;10.012;2023-04-10T12:27:52;101514.66;;;19.26;46.61
30421;BME280;17218;54.070;10.012;2023-04-10T12:30:18;101510.16;;;19.84;46.98
30421;BME280;17218;54.070;10.012;2023-04-10T12:33:01;101504.38;;;19.47;46.96
30421;BME280;17218;54.070;10.012;2023-04-10T12:35:38;101498.63;;;19.36;46.03
30421;BME280;17218;54.070;10.012;2023-04-10T12:38:06;101507.44;;;19.33;46.52
30421;BME280;17218;54.070;10.012;2023-04-10T12:40:32;101496.41;;;18.93;46.32
30421;BME280;17218;54.070;10.012;2023-04-10T12:42:59;101502.66;;;19.19;47.04
30421;BME280;17218;54.070;10.012;2023-04-10T12:45:42;101504.22;;;18.66;46.40